Time;durP1;ratioP1;P1;durP2;ratioP2;P2;SDS_P1;SDS_P2;PMS_P1;PMS_P2;Temp;Humidity;BMP_temperature;BMP_pressure;BME280_temperature;BME280_humidity;BME280_pressure;Samples;Min_cycle;Max_cycle;Signal;HPM_P1;HPM_P2
2022/04/08 04:05:53;;;;;;;5.07;1.80;;;6.40;99.90;;;;;;4879398;29;20649;-78
2022/04/08 04:08:22;;;;;;;7.33;1.70;;;6.40;99.90;;;;;;4882320;29;20642;-77
2022/04/08 04:10:50;;;;;;;6.03;1.77;;;6.40;99.90;;;;;;4882232;29;20218;-77
2022/04/08 04:13:18;;;;;;;7.27;1.80;;;6.40;99.90;;;;;;4882624;29;20321;-76
2022/04/08 04:15:47;;;;;;;8.20;2.00;;;6.40;99.90;;;;;;4882061;29;20282;-77
2022/04/08 04:18:16;;;;;;;7.87;1.83;;;6.30;99.90;;;;;;4882436;29;20722;-77
2022/04/08 04:20:45;;;;;;;7.13;1.93;;;6.40;99.90;;;;;;4883272;29;20299;-76
2022/04/08 04:23:15;;;;;;;7.47;2.03;;;6.30;99.90;;;;;;4882796;29;20252;-78
2022/04/08 04:25:43;;;;;;;8.47;2.20;;;6.30;99.90;;;;;;4882109;29;20535;-76
2022/04/08 04:28:11;;;;;;;9.27;2.30;;;6.30;99.90;;;;;;4882152;29;20274;-77
2022/04/08 04:30:39;;;;;;;7.70;1.97;;;6.40;99.90;;;;;;4881512;29;20221;-76
2022/04/08 04:33:08;;;;;;;8.93;2.50;;;6.40;99.90;;;;;;4881209;29;20210;-76
2022/04/08 04:35:36;;;;;;;9.37;2.23;;;6.40;99.90;;;;;;4881412;29;20274;-76
2022/04/08 04:38:07;;;;;;;8.80;2.30;;;6.40;99.90;;;;;;4881755;29;20233;-78
2022/04/08 04:40:37;;;;;;;11.30;2.30;;;6.40;99.90;;;;;;4881181;29;20688;-77
2022/04/08 04:43:05;;;;;;;9.80;2.60;;;6.40;99.90;;;;;;4881171;29;20309;-78
2022/04/08 04:45:37;;;;;;;8.63;2.20;;;6.40;99.90;;;;;;4881439;29;20681;-77
2022/04/08 04:48:06;;;;;;;7.20;2.20;;;6.40;99.90;;;;;;4881481;29;20222;-77
2022/04/08 04:50:35;;;;;;;8.13;2.27;;;6.40;99.90;;;;;;4881124;29;20214;-77
2022/04/08 04:53:04;;;;;;;10.07;2.30;;;6.40;99.90;;;;;;4880980;29;20274;-77
2022/04/08 04:55:33;;;;;;;7.23;2.20;;;6.40;99.90;;;;;;4881446;29;20237;-77
2022/04/08 04:58:03;;;;;;;12.17;2.57;;;6.40;99.90;;;;;;4880953;29;20248;-76
2022/04/08 05:00:31;;;;;;;9.20;2.30;;;6.50;99.90;;;;;;4880320;29;20614;-78
2022/04/08 05:03:01;;;;;;;10.03;2.23;;;6.50;99.90;;;;;;4881507;29;20265;-78
2022/04/08 05:05:29;;;;;;;5.83;2.00;;;6.50;99.90;;;;;;4871975;29;20325;-78
2022/04/08 05:08:01;;;;;;;5.57;1.83;;;6.50;99.90;;;;;;4867236;29;20219;-76
2022/04/08 05:10:31;;;;;;;8.33;2.10;;;6.50;99.90;;;;;;4864769;29;20297;-79
2022/04/08 05:13:00;;;;;;;4.50;1.53;;;6.60;99.90;;;;;;4863377;29;20238;-77
2022/04/08 05:15:32;;;;;;;6.50;1.70;;;6.60;99.90;;;;;;4862197;29;20222;-77
2022/04/08 05:18:03;;;;;;;4.90;1.50;;;6.70;99.90;;;;;;4861628;29;20653;-78
2022/04/08 05:20:32;;;;;;;7.47;1.50;;;6.70;99.90;;;;;;4862048;29;20271;-77
2022/04/08 05:23:00;;;;;;;5.07;1.53;;;6.80;99.90;;;;;;4845065;29;20237;-79
2022/04/08 05:25:28;;;;;;;7.40;1.60;;;6.80;99.90;;;;;;4844054;29;20801;-77
2022/04/08 05:27:58;;;;;;;6.23;1.40;;;6.90;99.90;;;;;;4843779;29;20302;-77
2022/04/08 05:30:26;;;;;;;4.17;1.60;;;7.00;99.90;;;;;;4855735;29;20243;-80
2022/04/08 05:32:57;;;;;;;7.07;1.60;;;6.90;99.90;;;;;;4862875;29;20673;-78
2022/04/08 05:35:27;;;;;;;5.23;1.20;;;7.00;99.90;;;;;;4862978;29;20207;-76
2022/04/08 05:37:56;;;;;;;3.20;1.33;;;7.00;99.90;;;;;;4863503;29;20211;-77
2022/04/08 05:40:26;;;;;;;4.10;1.30;;;7.40;99.90;;;;;;4862606;29;20318;-78
2022/04/08 05:42:58;;;;;;;4.17;1.40;;;7.70;99.90;;;;;;4860155;29;20227;-78
2022/04/08 05:45:28;;;;;;;4.77;1.40;;;7.70;99.90;;;;;;4861846;29;20693;-80
2022/04/08 05:48:05;;;;;;;4.27;1.67;;;7.60;99.90;;;;;;4864262;29;20211;-78
2022/04/08 05:50:42;;;;;;;5.43;1.50;;;7.90;99.90;;;;;;4861223;29;20249;-80
2022/04/08 05:53:13;;;;;;;5.80;1.47;;;7.90;99.90;;;;;;4866761;29;20213;-78
2022/04/08 05:56:03;;;;;;;4.73;1.20;;;7.70;99.90;;;;;;4862874;29;20223;-79
2022/04/08 05:58:32;;;;;;;3.27;1.50;;;7.50;99.90;;;;;;4859409;29;20625;-78
2022/04/08 06:01:01;;;;;;;5.43;1.80;;;7.40;99.90;;;;;;4867269;29;20215;-77
2022/04/08 06:03:41;;;;;;;6.80;1.63;;;7.30;99.90;;;;;;4867901;29;20235;-78
2022/04/08 06:06:10;;;;;;;4.63;1.30;;;7.20;99.90;;;;;;4866313;29;20597;-77
2022/04/08 06:08:39;;;;;;;6.23;2.20;;;7.10;99.90;;;;;;4866421;29;20222;-78
2022/04/08 06:11:07;;;;;;;6.00;1.93;;;7.20;99.90;;;;;;4868183;29;20214;-77
2022/04/08 06:13:36;;;;;;;6.33;2.10;;;7.10;99.90;;;;;;4868509;29;20274;-80
2022/04/08 06:16:10;;;;;;;7.53;1.77;;;7.10;99.90;;;;;;4868649;29;20218;-78
2022/04/08 06:18:41;;;;;;;4.40;1.67;;;7.10;99.90;;;;;;4868809;29;20210;-80
2022/04/08 06:21:10;;;;;;;6.27;2.00;;;7.00;99.90;;;;;;4865164;29;20230;-79
2022/04/08 06:23:38;;;;;;;9.57;4.23;;;7.00;99.90;;;;;;4867221;29;20215;-78
2022/04/08 06:26:06;;;;;;;7.63;3.60;;;7.00;99.90;;;;;;4867019;29;20258;-80
2022/04/08 06:28:35;;;;;;;6.87;2.30;;;7.20;99.90;;;;;;4868878;29;20688;-79
2022/04/08 06:31:04;;;;;;;7.13;2.83;;;7.10;99.90;;;;;;4865444;29;20349;-78
2022/04/08 06:33:32;;;;;;;9.63;2.50;;;7.20;99.90;;;;;;4862961;29;20310;-80
2022/04/08 06:36:09;;;;;;;7.97;1.90;;;7.20;99.90;;;;;;4863281;29;20239;-80
2022/04/08 06:38:42;;;;;;;8.10;1.87;;;7.20;99.90;;;;;;4864201;29;20209;-80
2022/04/08 06:41:11;;;;;;;3.83;1.93;;;7.20;99.90;;;;;;4864524;29;20223;-80
2022/04/08 06:43:39;;;;;;;5.83;1.97;;;7.30;99.90;;;;;;4865632;29;20238;-79
2022/04/08 06:46:07;;;;;;;6.47;1.80;;;7.20;99.90;;;;;;4864027;29;20266;-80
2022/04/08 06:48:35;;;;;;;7.10;2.20;;;7.20;99.90;;;;;;4863940;29;20274;-82
2022/04/08 06:51:04;;;;;;;4.37;1.90;;;7.20;99.90;;;;;;4869675;29;20266;-80
2022/04/08 06:53:35;;;;;;;8.53;2.13;;;7.30;99.90;;;;;;4877141;29;20253;-80
2022/04/08 06:56:05;;;;;;;5.10;2.60;;;7.20;99.90;;;;;;4875091;29;20235;-78
2022/04/08 06:58:39;;;;;;;7.70;2.50;;;7.20;99.90;;;;;;4863788;29;20215;-77
2022/04/08 07:01:07;;;;;;;4.70;1.67;;;7.20;99.90;;;;;;4856413;29;20226;-79
2022/04/08 07:03:37;;;;;;;8.03;2.37;;;7.10;99.90;;;;;;4869068;29;20227;-80
2022/04/08 07:06:05;;;;;;;4.70;1.50;;;7.20;99.90;;;;;;4864507;29;20881;-80
2022/04/08 07:08:35;;;;;;;3.17;1.57;;;7.10;99.90;;;;;;4865443;29;20694;-78
2022/04/08 07:11:03;;;;;;;4.50;1.60;;;7.10;99.90;;;;;;4864282;29;20666;-79
2022/04/08 07:13:31;;;;;;;3.97;1.43;;;7.00;99.90;;;;;;4866371;29;20260;-79
2022/04/08 07:16:01;;;;;;;4.60;1.80;;;7.00;99.90;;;;;;4846394;29;20211;-78
2022/04/08 07:18:35;;;;;;;5.80;1.90;;;7.00;99.90;;;;;;4863923;29;20246;-78
2022/04/08 07:21:03;;;;;;;7.43;1.70;;;7.00;99.90;;;;;;4865430;29;20305;-77
2022/04/08 07:23:32;;;;;;;5.93;1.73;;;7.00;99.90;;;;;;4862479;29;20211;-79
2022/04/08 07:26:01;;;;;;;6.27;1.73;;;7.00;99.90;;;;;;4861305;29;20231;-77
2022/04/08 07:28:33;;;;;;;5.23;1.70;;;7.10;99.90;;;;;;4855388;29;20226;-78
2022/04/08 07:31:03;;;;;;;9.10;1.90;;;7.10;99.90;;;;;;4856121;29;20211;-76
2022/04/08 07:33:32;;;;;;;5.57;1.70;;;7.10;99.90;;;;;;4848948;29;20211;-76
2022/04/08 07:36:00;;;;;;;5.67;1.77;;;7.20;99.90;;;;;;4858265;29;20219;-78
2022/04/08 07:38:30;;;;;;;4.77;1.57;;;7.30;99.90;;;;;;4856672;29;20211;-77
2022/04/08 07:40:58;;;;;;;7.67;1.97;;;7.40;99.90;;;;;;4858317;29;20632;-76
2022/04/08 07:43:28;;;;;;;5.20;1.80;;;7.40;99.90;;;;;;4862629;29;20219;-76
2022/04/08 07:45:56;;;;;;;8.00;1.90;;;7.40;99.90;;;;;;4870737;29;20227;-78
2022/04/08 07:48:24;;;;;;;4.60;1.57;;;7.30;99.90;;;;;;4862126;29;20591;-78
2022/04/08 07:50:53;;;;;;;5.30;2.23;;;7.50;99.90;;;;;;4861617;29;20208;-78
2022/04/08 07:53:21;;;;;;;4.57;1.77;;;7.60;99.90;;;;;;4853068;29;20672;-78
2022/04/08 07:55:50;;;;;;;5.63;1.90;;;7.70;99.90;;;;;;4858682;29;20223;-76
2022/04/08 07:58:18;;;;;;;5.50;1.77;;;7.80;99.90;;;;;;4853416;29;20203;-76
2022/04/08 08:00:48;;;;;;;7.70;1.73;;;8.00;99.90;;;;;;4859981;29;20223;-76
2022/04/08 08:03:19;;;;;;;5.80;1.53;;;8.30;99.90;;;;;;4864225;29;20221;-77
2022/04/08 08:05:47;;;;;;;4.97;1.97;;;8.50;99.90;;;;;;4851309;29;20262;-78
2022/04/08 08:08:44;;;;;;;9.53;1.70;;;8.70;99.90;;;;;;4853769;29;20198;-79
2022/04/08 08:11:13;;;;;;;4.70;1.70;;;8.70;99.90;;;;;;4865268;29;20219;-74
2022/04/08 08:13:55;;;;;;;7.53;1.77;;;9.00;99.90;;;;;;4864743;29;20195;-76
2022/04/08 08:16:25;;;;;;;3.60;1.40;;;8.90;99.90;;;;;;4853899;29;20212;-76
2022/04/08 08:18:56;;;;;;;7.50;1.90;;;8.90;99.90;;;;;;4849803;29;20212;-75
2022/04/08 08:21:28;;;;;;;4.63;1.80;;;8.90;99.90;;;;;;4864392;29;20200;-76
2022/04/08 08:23:59;;;;;;;4.33;1.80;;;8.80;99.90;;;;;;4863657;29;20243;-75
2022/04/08 08:26:29;;;;;;;5.27;1.83;;;8.80;99.90;;;;;;4860618;29;20250;-77
2022/04/08 08:28:58;;;;;;;5.77;1.80;;;8.70;99.90;;;;;;4861338;29;20203;-77
2022/04/08 08:31:28;;;;;;;5.37;1.60;;;8.50;99.90;;;;;;4861667;29;20786;-76
2022/04/08 08:33:56;;;;;;;4.77;1.67;;;8.40;99.90;;;;;;4860651;29;20215;-75
2022/04/08 08:36:27;;;;;;;3.83;1.80;;;8.30;99.90;;;;;;4858575;29;20215;-75
2022/04/08 08:38:55;;;;;;;4.40;1.63;;;8.20;99.90;;;;;;4860216;29;20694;-74
2022/04/08 08:41:25;;;;;;;6.37;1.80;;;8.00;99.90;;;;;;4873695;29;20230;-77
2022/04/08 08:43:54;;;;;;;5.70;1.80;;;8.10;99.90;;;;;;4876502;29;20211;-73
2022/04/08 08:46:23;;;;;;;5.83;1.97;;;8.00;99.90;;;;;;4861144;29;20342;-76
2022/04/08 08:48:56;;;;;;;5.87;2.10;;;8.00;99.90;;;;;;4861030;29;20211;-76
2022/04/08 08:51:25;;;;;;;4.63;1.40;;;8.10;99.90;;;;;;4859685;29;20635;-78
2022/04/08 08:53:54;;;;;;;4.23;1.40;;;8.10;99.90;;;;;;4867805;29;20222;-73
2022/04/08 08:56:22;;;;;;;4.50;1.83;;;8.10;99.90;;;;;;4865302;29;20215;-76
2022/04/08 08:58:51;;;;;;;6.80;3.10;;;8.20;99.90;;;;;;4864157;29;20207;-76
2022/04/08 09:01:20;;;;;;;4.90;2.37;;;8.30;99.90;;;;;;4862645;29;20222;-77
2022/04/08 09:03:48;;;;;;;4.17;2.30;;;8.30;99.90;;;;;;4861554;29;20221;-76
2022/04/08 09:06:21;;;;;;;4.83;2.57;;;8.30;99.90;;;;;;4844411;29;20240;-77
2022/04/08 09:08:57;;;;;;;3.97;1.90;;;8.40;99.90;;;;;;4860867;29;20214;-78
2022/04/08 09:11:26;;;;;;;4.87;1.90;;;8.50;99.90;;;;;;4861809;29;20215;-77
2022/04/08 09:14:02;;;;;;;4.30;2.07;;;8.50;99.90;;;;;;4861808;29;20275;-79
2022/04/08 09:16:35;;;;;;;4.70;1.87;;;8.60;99.90;;;;;;4861293;29;20219;-77
2022/04/08 09:19:11;;;;;;;4.50;2.10;;;8.60;99.90;;;;;;4861277;29;20684;-77
2022/04/08 09:21:51;;;;;;;4.83;2.00;;;8.60;99.90;;;;;;4861623;29;20532;-75
2022/04/08 09:24:23;;;;;;;2.57;1.40;;;8.80;99.90;;;;;;4861900;29;20247;-77
2022/04/08 09:26:52;;;;;;;2.27;1.00;;;8.80;99.90;;;;;;4853512;29;20239;-74
2022/04/08 09:29:21;;;;;;;4.07;1.43;;;8.80;99.90;;;;;;4860932;29;20677;-76
2022/04/08 09:31:53;;;;;;;2.67;1.30;;;8.60;99.90;;;;;;4859520;29;20218;-77
2022/04/08 09:34:22;;;;;;;4.27;1.70;;;8.80;99.90;;;;;;4849723;29;20261;-74
2022/04/08 09:36:52;;;;;;;4.57;1.80;;;8.70;99.90;;;;;;4855578;29;20208;-74
2022/04/08 09:39:21;;;;;;;5.83;2.10;;;8.80;99.90;;;;;;4843428;29;20227;-78
2022/04/08 09:41:52;;;;;;;7.20;2.13;;;8.80;99.90;;;;;;4859268;29;20214;-76
2022/04/08 09:44:24;;;;;;;5.17;2.53;;;8.80;99.90;;;;;;4854486;29;20215;-73
2022/04/08 09:46:53;;;;;;;3.37;1.70;;;8.70;99.90;;;;;;4859374;29;20226;-75
2022/04/08 09:49:22;;;;;;;4.30;1.60;;;8.80;99.90;;;;;;4863403;29;20240;-77
2022/04/08 09:51:54;;;;;;;4.60;1.40;;;9.10;99.90;;;;;;4863002;29;20207;-76
2022/04/08 09:54:24;;;;;;;3.80;1.50;;;9.30;99.90;;;;;;4860874;29;20631;-78
2022/04/08 09:56:54;;;;;;;2.17;1.63;;;9.30;99.90;;;;;;4860141;29;20211;-78
2022/04/08 09:59:35;;;;;;;3.30;1.37;;;9.40;99.90;;;;;;4842719;29;20295;-78
2022/04/08 10:02:27;;;;;;;4.87;2.30;;;9.50;99.90;;;;;;4843598;29;20222;-74
2022/04/08 10:05:07;;;;;;;3.53;1.43;;;9.70;99.90;;;;;;4842038;29;20223;-78
2022/04/08 10:07:39;;;;;;;3.60;1.60;;;9.70;99.90;;;;;;4858747;29;20720;-75
2022/04/08 10:10:17;;;;;;;4.10;1.77;;;9.50;99.90;;;;;;4841716;29;20275;-79
2022/04/08 10:13:05;;;;;;;4.13;1.67;;;9.60;99.90;;;;;;4844173;29;20192;-78
2022/04/08 10:15:38;;;;;;;2.70;1.33;;;9.60;99.90;;;;;;4853396;29;20310;-77
2022/04/08 10:18:07;;;;;;;3.10;1.30;;;9.70;99.90;;;;;;4858931;29;20261;-78
2022/04/08 10:20:38;;;;;;;3.63;1.50;;;9.70;99.90;;;;;;4858091;29;20215;-79
2022/04/08 10:23:09;;;;;;;2.83;1.30;;;9.70;99.90;;;;;;4841134;29;20200;-73
2022/04/08 10:25:39;;;;;;;2.23;1.30;;;9.80;99.90;;;;;;4859798;29;20286;-74
2022/04/08 10:28:08;;;;;;;2.30;1.10;;;10.00;99.90;;;;;;4858674;29;20266;-76
2022/04/08 10:30:45;;;;;;;2.33;1.30;;;10.00;99.90;;;;;;4859756;29;20275;-76
2022/04/08 10:33:14;;;;;;;3.67;1.17;;;9.90;99.90;;;;;;4850251;29;20215;-77
2022/04/08 10:35:53;;;;;;;2.80;1.10;;;9.90;99.90;;;;;;4853844;29;20298;-78
2022/04/08 10:38:23;;;;;;;7.23;4.90;;;9.70;99.90;;;;;;4860779;29;20773;-77
2022/04/08 10:40:56;;;;;;;7.00;4.97;;;9.80;99.90;;;;;;4860346;29;20226;-78
2022/04/08 10:43:26;;;;;;;3.43;2.57;;;9.70;99.90;;;;;;4859835;29;20203;-74
2022/04/08 10:45:56;;;;;;;5.33;2.70;;;9.70;99.90;;;;;;4859849;29;20310;-75
2022/04/08 10:48:31;;;;;;;6.43;4.43;;;9.50;99.90;;;;;;4859534;29;20242;-75
2022/04/08 10:51:05;;;;;;;5.57;3.50;;;9.40;99.90;;;;;;4859129;29;20292;-77
2022/04/08 10:53:40;;;;;;;4.03;1.70;;;9.30;99.90;;;;;;4860084;29;20608;-75
2022/04/08 10:56:12;;;;;;;4.67;1.60;;;9.20;99.90;;;;;;4859106;29;20251;-77
2022/04/08 10:58:42;;;;;;;3.97;1.47;;;9.10;99.90;;;;;;4859736;29;20198;-76
2022/04/08 11:01:18;;;;;;;6.67;2.87;;;9.00;99.90;;;;;;4852908;29;20803;-75
2022/04/08 11:03:54;;;;;;;4.20;1.60;;;9.00;99.90;;;;;;4861450;29;20225;-76
2022/04/08 11:06:24;;;;;;;3.90;1.53;;;8.80;99.90;;;;;;4866931;29;20223;-74
2022/04/08 11:08:54;;;;;;;4.10;1.50;;;8.80;99.90;;;;;;4875152;29;20206;-75
2022/04/08 11:11:30;;;;;;;3.97;1.73;;;8.70;99.90;;;;;;4871650;29;20210;-77
2022/04/08 11:13:59;;;;;;;2.90;1.60;;;8.60;99.90;;;;;;4861309;29;20251;-75
2022/04/08 11:16:36;;;;;;;4.53;1.80;;;8.60;99.90;;;;;;4861418;29;20629;-77
2022/04/08 11:19:08;;;;;;;4.07;2.03;;;8.50;99.90;;;;;;4863737;29;20677;-73
2022/04/08 11:21:37;;;;;;;4.47;2.60;;;8.50;99.90;;;;;;4866523;29;20203;-75
2022/04/08 11:24:12;;;;;;;5.70;2.40;;;8.60;99.90;;;;;;4863386;29;20307;-76
2022/04/08 11:26:44;;;;;;;3.93;1.80;;;8.80;99.90;;;;;;4865051;29;20220;-75
2022/04/08 11:29:15;;;;;;;4.33;2.10;;;8.90;99.90;;;;;;4862517;29;20237;-74
2022/04/08 11:31:44;;;;;;;5.90;2.03;;;8.90;99.90;;;;;;4862732;29;20260;-73
2022/04/08 11:34:14;;;;;;;3.43;2.00;;;8.90;99.90;;;;;;4845454;29;20219;-75
2022/04/08 11:36:44;;;;;;;6.10;2.00;;;9.10;99.90;;;;;;4844862;29;20279;-75
2022/04/08 11:39:21;;;;;;;5.20;2.03;;;9.10;99.90;;;;;;4862824;29;20238;-72
2022/04/08 11:41:54;;;;;;;4.63;1.80;;;9.10;99.90;;;;;;4863179;29;20278;-76
2022/04/08 11:44:22;;;;;;;4.17;1.93;;;9.20;99.90;;;;;;4864126;29;20293;-75
2022/04/08 11:46:52;;;;;;;5.07;2.53;;;9.10;99.90;;;;;;4848359;29;20275;-74
2022/04/08 11:49:24;;;;;;;5.00;2.07;;;9.10;99.90;;;;;;4861316;29;20237;-76
2022/04/08 11:52:03;;;;;;;4.37;2.03;;;9.10;99.90;;;;;;4862608;29;20244;-76
2022/04/08 11:54:37;;;;;;;5.00;2.10;;;8.90;99.90;;;;;;4862314;29;20262;-77
2022/04/08 11:57:28;;;;;;;5.30;2.30;;;8.90;99.90;;;;;;4862250;29;20229;-76
2022/04/08 11:59:57;;;;;;;3.73;2.20;;;9.00;99.90;;;;;;4867552;29;20218;-77
2022/04/08 12:02:25;;;;;;;4.63;2.10;;;9.00;99.90;;;;;;4861962;29;20210;-74
2022/04/08 12:04:54;;;;;;;4.93;2.13;;;9.10;99.90;;;;;;4856340;29;20215;-74
2022/04/08 12:07:24;;;;;;;3.70;2.10;;;9.20;99.90;;;;;;4859165;29;20215;-73
2022/04/08 12:09:59;;;;;;;4.33;2.80;;;9.50;99.90;;;;;;4855225;29;20625;-76
2022/04/08 12:12:32;;;;;;;2.83;1.80;;;9.70;99.90;;;;;;4855706;29;20211;-74
2022/04/08 12:15:08;;;;;;;3.17;1.80;;;10.00;99.90;;;;;;4857927;29;20234;-77
2022/04/08 12:17:40;;;;;;;3.57;1.87;;;9.90;99.90;;;;;;4861254;29;20282;-74
2022/04/08 12:20:13;;;;;;;3.53;2.20;;;10.10;99.90;;;;;;4859959;29;20294;-77
2022/04/08 12:22:46;;;;;;;3.43;1.90;;;10.10;99.90;;;;;;4861058;29;20271;-80
2022/04/08 12:25:17;;;;;;;4.50;2.17;;;10.30;99.90;;;;;;4861212;29;20295;-72
2022/04/08 12:27:54;;;;;;;3.23;2.07;;;10.50;99.90;;;;;;4860791;29;20302;-76
2022/04/08 12:30:39;;;;;;;3.20;2.13;;;10.70;99.90;;;;;;4872623;29;20220;-73
2022/04/08 12:33:14;;;;;;;3.30;2.23;;;11.00;99.90;;;;;;4873538;29;20714;-73
2022/04/08 12:35:42;;;;;;;2.43;2.00;;;11.10;99.90;;;;;;4861773;29;20305;-76
2022/04/08 12:38:11;;;;;;;3.07;1.80;;;11.40;99.90;;;;;;4862183;29;20210;-76
2022/04/08 12:40:41;;;;;;;4.00;2.10;;;11.60;99.90;;;;;;4858457;29;20217;-80
2022/04/08 12:43:10;;;;;;;4.03;3.10;;;11.80;99.90;;;;;;4858726;29;20292;-77
2022/04/08 12:45:38;;;;;;;3.73;2.30;;;12.10;99.90;;;;;;4860436;29;20671;-76
2022/04/08 12:48:07;;;;;;;2.47;1.87;;;12.20;99.90;;;;;;4860183;29;20732;-78
2022/04/08 12:50:36;;;;;;;2.83;1.77;;;12.20;99.90;;;;;;4856128;29;20669;-77
2022/04/08 12:53:05;;;;;;;2.30;1.80;;;12.20;99.90;;;;;;4860246;29;20274;-78
2022/04/08 12:55:35;;;;;;;3.03;1.90;;;12.30;99.90;;;;;;4862262;29;20191;-77
2022/04/08 12:58:04;;;;;;;3.53;2.00;;;12.00;99.90;;;;;;4851205;29;20777;-73
2022/04/08 13:00:34;;;;;;;3.87;2.20;;;11.80;99.90;;;;;;4852333;29;20222;-77
2022/04/08 13:03:05;;;;;;;2.67;1.73;;;11.90;99.90;;;;;;4857141;29;20351;-77
2022/04/08 13:05:33;;;;;;;2.20;1.83;;;11.90;99.90;;;;;;4860443;29;20297;-76
2022/04/08 13:08:01;;;;;;;2.67;1.70;;;12.00;99.90;;;;;;4862615;29;20243;-77
2022/04/08 13:10:29;;;;;;;2.80;1.90;;;12.10;99.90;;;;;;4852456;29;20294;-75
2022/04/08 13:13:03;;;;;;;2.53;2.00;;;12.10;99.90;;;;;;4843149;29;20646;-78
2022/04/08 13:15:32;;;;;;;2.73;1.97;;;12.10;99.90;;;;;;4843402;29;20263;-75
2022/04/08 13:18:01;;;;;;;2.77;2.10;;;12.10;99.90;;;;;;4856262;29;20246;-75
2022/04/08 13:20:29;;;;;;;2.83;2.03;;;11.80;99.90;;;;;;4859549;29;20681;-75
2022/04/08 13:22:57;;;;;;;2.87;2.00;;;11.90;99.90;;;;;;4860479;29;20218;-78
2022/04/08 13:25:25;;;;;;;4.37;2.37;;;11.80;99.90;;;;;;4859730;29;20242;-72
2022/04/08 13:27:57;;;;;;;3.50;2.40;;;11.80;99.90;;;;;;4863629;29;20583;-77
2022/04/08 13:30:28;;;;;;;3.13;2.27;;;11.80;99.90;;;;;;4867111;29;20262;-76
2022/04/08 13:32:56;;;;;;;3.40;2.40;;;11.80;99.90;;;;;;4863567;29;20243;-77
2022/04/08 13:35:28;;;;;;;3.47;2.10;;;11.80;99.90;;;;;;4868332;29;20219;-76
2022/04/08 13:37:57;;;;;;;4.30;2.50;;;11.80;99.90;;;;;;4863435;29;20239;-78
2022/04/08 13:40:26;;;;;;;2.60;1.80;;;11.90;99.90;;;;;;4863860;29;20243;-77
2022/04/08 13:42:55;;;;;;;3.80;2.03;;;11.90;99.90;;;;;;4863704;29;20575;-75
2022/04/08 13:45:23;;;;;;;4.93;2.00;;;11.90;99.90;;;;;;4862169;29;20239;-77
2022/04/08 13:47:53;;;;;;;3.83;2.00;;;11.80;99.90;;;;;;4860869;29;20217;-75
2022/04/08 13:50:22;;;;;;;2.53;1.90;;;11.80;99.90;;;;;;4857134;29;20327;-75
2022/04/08 13:52:51;;;;;;;1.70;1.60;;;11.70;99.90;;;;;;4859661;29;20215;-74
2022/04/08 13:55:19;;;;;;;3.43;1.40;;;11.80;99.90;;;;;;4860137;29;20250;-74
2022/04/08 13:57:47;;;;;;;2.20;1.73;;;11.80;99.90;;;;;;4862086;29;20559;-76
2022/04/08 14:00:17;;;;;;;2.50;1.40;;;11.90;99.90;;;;;;4860208;29;20207;-77
2022/04/08 14:02:45;;;;;;;1.37;0.97;;;12.10;99.90;;;;;;4860891;29;20590;-73
2022/04/08 14:05:16;;;;;;;1.07;0.90;;;12.10;99.90;;;;;;4861704;29;20223;-75
2022/04/08 14:07:44;;;;;;;1.67;0.90;;;12.40;99.90;;;;;;4861128;29;20302;-74
2022/04/08 14:10:12;;;;;;;1.30;0.87;;;12.60;99.90;;;;;;4860734;29;20266;-74
2022/04/08 14:12:43;;;;;;;0.70;0.70;;;12.80;99.90;;;;;;4860239;29;20294;-74
2022/04/08 14:15:11;;;;;;;0.80;0.80;;;12.80;99.90;;;;;;4859860;29;20223;-75
2022/04/08 14:17:45;;;;;;;0.93;0.67;;;13.00;99.90;;;;;;4860144;29;20210;-75
2022/04/08 14:20:13;;;;;;;0.73;0.60;;;13.00;99.90;;;;;;4859286;29;20298;-74
2022/04/08 14:22:42;;;;;;;2.50;0.60;;;13.10;99.90;;;;;;4859883;29;20223;-75
2022/04/08 14:25:11;;;;;;;0.30;0.30;;;13.20;99.90;;;;;;4859895;29;20386;-76
2022/04/08 14:28:01;;;;;;;0.60;0.60;;;13.20;99.90;;;;;;4858858;29;20215;-75
2022/04/08 14:30:31;;;;;;;0.50;0.50;;;13.30;99.90;;;;;;4859595;29;20238;-75
2022/04/08 14:32:59;;;;;;;1.33;0.40;;;13.40;99.90;;;;;;4859770;29;20223;-73
2022/04/08 14:35:27;;;;;;;0.67;0.40;;;13.50;99.90;;;;;;4860592;29;20219;-77
2022/04/08 14:37:57;;;;;;;0.43;0.40;;;13.60;99.90;;;;;;4858913;29;20283;-78
2022/04/08 14:40:26;;;;;;;2.40;0.40;;;13.60;99.90;;;;;;4858534;29;20274;-75
2022/04/08 14:42:57;;;;;;;1.47;0.60;;;13.60;99.90;;;;;;4877518;29;20245;-74
2022/04/08 14:45:25;;;;;;;0.43;0.43;;;13.70;99.90;;;;;;4874437;29;20221;-77
2022/04/08 14:47:53;;;;;;;0.63;0.47;;;13.70;99.90;;;;;;4859350;29;20662;-76
2022/04/08 14:50:21;;;;;;;0.70;0.50;;;13.70;99.90;;;;;;4856699;29;20251;-74
2022/04/08 14:52:53;;;;;;;0.93;0.80;;;13.60;99.90;;;;;;4859631;29;20269;-75
2022/04/08 14:55:23;;;;;;;1.33;0.50;;;13.60;99.90;;;;;;4859395;29;20314;-76
2022/04/08 14:57:51;;;;;;;0.50;0.50;;;13.50;99.90;;;;;;4862068;29;20234;-74
2022/04/08 15:00:21;;;;;;;1.70;0.93;;;13.60;99.90;;;;;;4861735;29;20215;-74
2022/04/08 15:02:50;;;;;;;0.93;0.80;;;13.60;99.90;;;;;;4862598;29;20305;-76
2022/04/08 15:05:18;;;;;;;3.17;0.50;;;13.60;99.90;;;;;;4872588;29;20231;-74
2022/04/08 15:07:47;;;;;;;2.90;1.10;;;13.60;99.90;;;;;;4876082;29;20211;-75
2022/04/08 15:10:17;;;;;;;1.13;0.60;;;13.80;99.90;;;;;;4876134;29;20219;-74
2022/04/08 15:12:47;;;;;;;2.63;0.60;;;13.80;99.90;;;;;;4879086;29;20199;-74
2022/04/08 15:15:15;;;;;;;3.77;1.20;;;13.90;99.90;;;;;;4861854;29;20279;-73
2022/04/08 15:17:43;;;;;;;1.53;0.90;;;14.10;99.90;;;;;;4859397;29;20266;-76
2022/04/08 15:20:12;;;;;;;0.60;0.60;;;14.20;99.90;;;;;;4859233;29;20222;-75
2022/04/08 15:22:40;;;;;;;0.73;0.70;;;14.30;99.90;;;;;;4861056;29;20305;-77
2022/04/08 15:25:09;;;;;;;2.87;1.70;;;14.30;99.90;;;;;;4858815;29;20806;-76
2022/04/08 15:27:38;;;;;;;3.97;1.27;;;14.30;99.90;;;;;;4859286;29;20220;-76
2022/04/08 15:30:09;;;;;;;0.90;0.40;;;14.30;99.90;;;;;;4858359;29;20270;-74
2022/04/08 15:32:38;;;;;;;2.77;1.23;;;14.40;99.90;;;;;;4858764;29;20215;-77
2022/04/08 15:35:07;;;;;;;2.10;0.83;;;14.30;99.90;;;;;;4858450;29;20215;-72
2022/04/08 15:37:35;;;;;;;0.80;0.80;;;14.30;99.90;;;;;;4861961;29;20216;-75
2022/04/08 15:40:04;;;;;;;3.53;0.83;;;14.20;99.90;;;;;;4858596;29;20219;-78
2022/04/08 15:42:33;;;;;;;2.03;0.70;;;14.00;99.90;;;;;;4858734;29;20717;-74
2022/04/08 15:45:02;;;;;;;1.80;1.00;;;13.50;99.90;;;;;;4860472;29;20225;-76
2022/04/08 15:47:32;;;;;;;1.73;0.80;;;13.00;99.90;;;;;;4858331;29;20222;-73
2022/04/08 15:50:00;;;;;;;1.03;0.90;;;12.70;99.90;;;;;;4857670;29;20636;-79
2022/04/08 15:52:29;;;;;;;1.53;0.60;;;12.50;99.90;;;;;;4858443;29;20211;-77
2022/04/08 15:54:57;;;;;;;1.10;0.60;;;12.30;99.90;;;;;;4857721;29;20203;-77
2022/04/08 15:57:28;;;;;;;1.10;0.43;;;12.20;99.90;;;;;;4858274;29;20223;-76
2022/04/08 15:59:57;;;;;;;0.33;0.33;;;12.10;99.90;;;;;;4857802;29;20211;-77
2022/04/08 16:02:26;;;;;;;0.73;0.43;;;12.00;99.90;;;;;;4858632;29;20676;-76
2022/04/08 16:04:56;;;;;;;1.38;0.50;;;11.90;99.90;;;;;;4860868;29;20519;-76
2022/04/08 16:07:24;;;;;;;0.93;0.67;;;11.80;99.90;;;;;;4860686;29;20889;-79
2022/04/08 16:09:54;;;;;;;0.70;0.40;;;11.60;99.90;;;;;;4861506;29;20269;-73
2022/04/08 16:12:24;;;;;;;0.60;0.30;;;11.50;99.90;;;;;;4861646;29;20708;-77
2022/04/08 16:14:52;;;;;;;0.57;0.40;;;11.50;99.90;;;;;;4859618;29;20273;-74
2022/04/08 16:17:20;;;;;;;1.80;0.70;;;11.40;99.90;;;;;;4861522;29;20250;-75
2022/04/08 16:19:48;;;;;;;0.43;0.40;;;11.30;99.90;;;;;;4869069;29;20210;-76
2022/04/08 16:22:18;;;;;;;0.40;0.40;;;11.40;99.90;;;;;;4873267;29;20233;-75
2022/04/08 16:24:47;;;;;;;0.33;0.33;;;11.40;99.90;;;;;;4862027;29;20698;-77
2022/04/08 16:27:15;;;;;;;1.97;0.50;;;11.50;99.90;;;;;;4861342;29;20274;-77
2022/04/08 16:29:43;;;;;;;2.67;0.60;;;11.50;99.90;;;;;;4860249;29;20211;-76
2022/04/08 16:32:11;;;;;;;0.37;0.37;;;11.60;99.90;;;;;;4860516;29;20781;-77
2022/04/08 16:35:00;;;;;;;0.50;0.50;;;11.70;99.90;;;;;;4842534;29;20214;-74
2022/04/08 16:37:29;;;;;;;0.77;0.50;;;11.80;99.90;;;;;;4842319;29;20276;-74
2022/04/08 16:39:57;;;;;;;1.63;0.40;;;11.80;99.90;;;;;;4856770;29;20241;-72
2022/04/08 16:42:25;;;;;;;0.60;0.40;;;11.80;99.90;;;;;;4862390;29;20235;-76
2022/04/08 16:44:54;;;;;;;1.43;0.73;;;11.90;99.90;;;;;;4862438;29;20238;-75
2022/04/08 16:47:23;;;;;;;1.00;0.90;;;11.90;99.90;;;;;;4861404;29;20287;-72
2022/04/08 16:49:53;;;;;;;0.90;0.40;;;12.00;99.90;;;;;;4853965;29;20243;-74
2022/04/08 16:52:22;;;;;;;0.53;0.53;;;12.10;99.90;;;;;;4859722;29;20226;-75
2022/04/08 16:54:51;;;;;;;1.77;0.70;;;12.10;99.90;;;;;;4860737;29;20238;-76
2022/04/08 16:57:20;;;;;;;2.00;0.70;;;12.10;99.90;;;;;;4860178;29;20309;-78
2022/04/08 17:00:10;;;;;;;0.50;0.50;;;12.10;99.90;;;;;;4859024;29;20218;-73
2022/04/08 17:02:39;;;;;;;1.90;0.60;;;12.10;99.90;;;;;;4862487;29;20195;-77
2022/04/08 17:05:08;;;;;;;0.50;0.50;;;12.20;99.90;;;;;;4862890;29;20227;-75
2022/04/08 17:07:37;;;;;;;0.60;0.60;;;12.10;99.90;;;;;;4862041;29;20511;-76
2022/04/08 17:10:11;;;;;;;1.37;0.70;;;12.10;99.90;;;;;;4860857;29;20298;-79
2022/04/08 17:12:39;;;;;;;2.77;0.83;;;12.10;99.90;;;;;;4858478;29;20618;-76
2022/04/08 17:15:09;;;;;;;1.07;0.80;;;12.10;99.90;;;;;;4849085;29;20247;-75